Time,TemperatureF,DewpointF,PressureIn,WindDirection,WindDirectionDegrees,WindSpeedMPH,WindSpeedGustMPH,Humidity,HourlyPrecipIn,Conditions,Clouds,dailyrainin,SoftwareType,DateUTC
2013-04-26 07:05:00,47.3,40.8,30.35,NE,51,6.0,6.0,78,0.00,,,0.00,Wunderground v.1.15,2013-04-26 12:05:00,
2013-04-26 07:06:00,47.6,40.4,30.36,East,92,6.0,8.0,76,0.00,,,0.00,Wunderground v.1.15,2013-04-26 12:06:00,
2013-04-26 07:07:00,47.7,40.8,30.35,ENE,69,6.0,8.0,77,0.00,,,0.00,Wunderground v.1.15,2013-04-26 12:07:00,
2013-04-26 07:11:00,48.3,41.8,30.35,ENE,74,7.0,8.0,78,0.00,,,0.00,Wunderground v.1.15,2013-04-26 12:11:00,
2013-04-26 07:16:00,48.6,41.4,30.35,East,101,7.0,8.0,76,0.00,,,0.00,Wunderground v.1.15,2013-04-26 12:16:00,
2013-04-26 07:22:00,49.3,41.7,30.36,ENE,75,6.0,7.0,75,0.00,,,0.00,Wunderground v.1.15,2013-04-26 12:22:00,
2013-04-26 07:28:00,48.9,41.0,30.38,ENE,73,4.0,7.0,74,0.00,,,0.00,Wunderground v.1.15,2013-04-26 12:28:00,
2013-04-26 07:34:00,48.8,41.6,30.38,ENE,69,3.0,4.0,76,0.00,,,0.00,Wunderground v.1.15,2013-04-26 12:34:00,
2013-04-26 07:40:00,50.1,42.1,30.39,ENE,74,3.0,4.0,74,0.00,,,0.00,Wunderground v.1.15,2013-04-26 12:40:00,
2013-04-26 07:46:00,50.8,42.8,30.38,ESE,102,3.0,4.0,74,0.00,,,0.00,Wunderground v.1.15,2013-04-26 12:46:00,
2013-04-26 07:52:00,51.2,43.2,30.38,ENE,65,3.0,5.0,74,0.00,,,0.00,Wunderground v.1.15,2013-04-26 12:52:00,
2013-04-26 07:57:00,51.6,43.2,30.38,East,84,3.0,5.0,73,0.00,,,0.00,Wunderground v.1.15,2013-04-26 12:57:00,
2013-04-26 08:03:00,51.9,43.5,30.39,ENE,73,3.0,5.0,73,0.00,,,0.00,Wunderground v.1.15,2013-04-26 13:03:00,
2013-04-26 08:09:00,52.3,44.6,30.40,East,82,3.0,5.0,75,0.00,,,0.00,Wunderground v.1.15,2013-04-26 13:09:00,
2013-04-26 10:38:00,55.0,44.2,30.48,ESE,108,0.0,4.0,67,0.00,,,0.00,Wunderground v.1.15,2013-04-26 15:38:00,
2013-04-26 10:43:00,55.0,44.2,30.48,ESE,108,0.0,4.0,67,0.00,,,0.00,Wunderground v.1.15,2013-04-26 15:43:00,
2013-04-26 10:48:00,54.9,43.7,30.48,ESE,108,0.0,4.0,66,0.00,,,0.00,Wunderground v.1.15,2013-04-26 15:48:00,
2013-04-26 10:54:00,54.7,44.0,30.48,ESE,108,0.0,4.0,67,0.00,,,0.00,Wunderground v.1.15,2013-04-26 15:54:00,
2013-04-26 11:01:00,54.6,44.2,30.48,ESE,108,0.0,0.0,68,0.00,,,0.00,Wunderground v.1.15,2013-04-26 16:01:00,
2013-04-26 11:07:00,54.4,44.8,30.48,ESE,108,0.0,0.0,70,0.00,,,0.00,Wunderground v.1.15,2013-04-26 16:07:00,
2013-04-26 11:13:00,54.2,44.2,30.48,ESE,108,0.0,0.0,69,0.00,,,0.00,Wunderground v.1.15,2013-04-26 16:13:00,
2013-04-26 11:19:00,54.2,43.9,30.47,ESE,108,0.0,0.0,68,0.00,,,0.00,Wunderground v.1.15,2013-04-26 16:19:00,
2013-04-26 11:24:00,54.2,45.4,30.46,ESE,108,0.0,1.0,72,0.00,,,0.00,Wunderground v.1.15,2013-04-26 16:24:00,
2013-04-26 11:29:00,54.1,46.3,30.43,ENE,70,0.0,5.0,75,0.00,,,0.00,Wunderground v.1.15,2013-04-26 16:29:00,
2013-04-26 11:35:00,53.9,45.8,30.41,ENE,70,3.0,7.0,74,0.00,,,0.00,Wunderground v.1.15,2013-04-26 16:35:00,
2013-04-26 11:40:00,53.8,45.0,30.45,SE,142,3.0,7.0,72,0.00,,,0.00,Wunderground v.1.15,2013-04-26 16:40:00,
2013-04-26 11:46:00,53.9,45.4,30.44,East,93,1.0,3.0,73,0.00,,,0.00,Wunderground v.1.15,2013-04-26 16:46:00,
2013-04-26 11:51:00,53.9,46.5,30.44,East,93,0.0,0.0,76,0.00,,,0.00,Wunderground v.1.15,2013-04-26 16:51:00,
2013-04-26 11:56:00,54.1,47.7,30.43,ENE,63,1.0,2.0,79,0.00,,,0.00,Wunderground v.1.15,2013-04-26 16:56:00,
2013-04-26 12:02:00,54.4,48.4,30.42,ENE,66,2.0,5.0,80,0.00,,,0.00,Wunderground v.1.15,2013-04-26 17:02:00,
2013-04-26 12:07:00,54.4,48.0,30.41,ENE,57,3.0,7.0,79,0.00,,,0.00,Wunderground v.1.15,2013-04-26 17:07:00,
2013-04-26 12:12:00,54.4,46.3,30.42,ENE,69,2.0,3.0,74,0.00,,,0.00,Wunderground v.1.15,2013-04-26 17:12:00,
2013-04-26 12:17:00,54.4,47.0,30.42,NE,49,1.0,3.0,76,0.00,,,0.00,Wunderground v.1.15,2013-04-26 17:17:00,
2013-04-26 12:23:00,54.2,47.5,30.41,East,79,3.0,5.0,78,0.00,,,0.00,Wunderground v.1.15,2013-04-26 17:23:00,
2013-04-26 12:29:00,54.1,48.1,30.41,ENE,64,3.0,5.0,80,0.00,,,0.01,Wunderground v.1.15,2013-04-26 17:29:00,
2013-04-26 12:34:00,54.2,48.5,30.42,NE,48,2.0,3.0,81,0.00,,,0.01,Wunderground v.1.15,2013-04-26 17:34:00,
2013-04-26 12:40:00,54.2,47.8,30.41,ENE,74,2.0,2.0,79,0.00,,,0.01,Wunderground v.1.15,2013-04-26 17:40:00,
2013-04-26 12:47:00,54.2,48.8,30.40,NE,42,3.0,4.0,82,0.04,,,0.02,Wunderground v.1.15,2013-04-26 17:47:00,
2013-04-26 12:53:00,54.1,48.1,30.40,NNE,29,2.0,3.0,80,0.04,,,0.02,Wunderground v.1.15,2013-04-26 17:53:00,
2013-04-26 12:59:00,54.1,47.7,30.41,NNE,28,2.0,3.0,79,0.00,,,0.02,Wunderground v.1.15,2013-04-26 17:59:00,
2013-04-26 13:05:00,54.2,48.8,30.41,NE,41,2.0,3.0,82,0.00,,,0.02,Wunderground v.1.15,2013-04-26 18:05:00,
2013-04-26 13:10:00,54.2,47.8,30.41,NNE,20,2.0,3.0,79,0.00,,,0.02,Wunderground v.1.15,2013-04-26 18:10:00,
2013-04-26 13:16:00,54.3,48.3,30.42,NNE,16,2.0,3.0,80,0.00,,,0.02,Wunderground v.1.15,2013-04-26 18:16:00,
2013-04-26 13:30:00,54.2,48.8,30.42,NNE,30,1.0,1.0,82,0.00,,,0.03,Wunderground v.1.15,2013-04-26 18:30:00,
2013-04-26 13:37:00,54.0,48.3,30.42,NNE,30,0.0,1.0,81,0.10,,,0.04,Wunderground v.1.15,2013-04-26 18:37:00,
2013-04-26 13:43:00,53.8,49.1,30.42,NNE,30,0.0,0.0,84,0.21,,,0.06,Wunderground v.1.15,2013-04-26 18:43:00,
2013-04-26 13:49:00,53.6,48.9,30.42,NNE,30,0.0,0.0,84,0.13,,,0.07,Wunderground v.1.15,2013-04-26 18:49:00,
2013-04-26 13:54:00,53.4,49.0,30.41,NNE,30,0.0,1.0,85,0.10,,,0.08,Wunderground v.1.15,2013-04-26 18:54:00,
2013-04-26 13:59:00,53.3,49.2,30.40,NE,51,1.0,1.0,86,0.08,,,0.08,Wunderground v.1.15,2013-04-26 18:59:00,
2013-04-26 14:05:00,53.2,49.1,30.41,NE,51,1.0,1.0,86,0.13,,,0.10,Wunderground v.1.15,2013-04-26 19:05:00,
2013-04-26 14:10:00,53.1,49.0,30.41,NE,52,0.0,1.0,86,0.10,,,0.10,Wunderground v.1.15,2013-04-26 19:10:00,
2013-04-26 14:17:00,52.8,48.7,30.42,ENE,60,0.0,1.0,86,0.05,,,0.11,Wunderground v.1.15,2013-04-26 19:17:00,
2013-04-26 14:22:00,52.9,49.4,30.43,WSW,247,1.0,5.0,88,0.05,,,0.11,Wunderground v.1.15,2013-04-26 19:22:00,
2013-04-26 14:27:00,52.7,48.9,30.42,WSW,243,1.0,5.0,87,0.05,,,0.11,Wunderground v.1.15,2013-04-26 19:27:00,
2013-04-26 14:32:00,52.6,48.8,30.43,SW,231,1.0,4.0,87,0.05,,,0.12,Wunderground v.1.15,2013-04-26 19:32:00,
2013-04-26 14:37:00,52.6,49.4,30.41,SW,234,2.0,4.0,89,0.10,,,0.13,Wunderground v.1.15,2013-04-26 19:37:00,
2013-04-26 14:43:00,52.3,49.5,30.45,WSW,255,3.0,6.0,90,0.09,,,0.14,Wunderground v.1.15,2013-04-26 19:43:00,
2013-04-26 14:48:00,52.2,49.9,30.44,WSW,238,5.0,6.0,92,0.09,,,0.15,Wunderground v.1.15,2013-04-26 19:48:00,
2013-04-26 14:54:00,51.9,49.6,30.44,West,267,3.0,5.0,92,0.45,,,0.18,Wunderground v.1.15,2013-04-26 19:54:00,
2013-04-26 14:58:00,51.9,49.6,30.43,West,267,1.0,5.0,92,0.32,,,0.20,Wunderground v.1.15,2013-04-26 19:58:00,
2013-04-26 15:04:00,51.7,49.2,30.43,West,263,0.0,1.0,91,0.16,,,0.22,Wunderground v.1.15,2013-04-26 20:04:00,
2013-04-26 15:09:00,51.8,49.5,30.43,West,263,0.0,1.0,92,0.08,,,0.23,Wunderground v.1.15,2013-04-26 20:09:00,
2013-04-26 15:14:00,51.8,49.5,30.44,West,263,0.0,0.0,92,0.08,,,0.23,Wunderground v.1.15,2013-04-26 20:14:00,
2013-04-26 15:19:00,51.8,49.5,30.45,West,262,1.0,3.0,92,0.07,,,0.24,Wunderground v.1.15,2013-04-26 20:19:00,
2013-04-26 15:25:00,51.7,49.2,30.44,West,262,1.0,1.0,91,0.08,,,0.25,Wunderground v.1.15,2013-04-26 20:25:00,
2013-04-26 15:30:00,51.6,49.4,30.44,West,262,0.0,0.0,92,0.12,,,0.26,Wunderground v.1.15,2013-04-26 20:30:00,
2013-04-26 15:35:00,51.5,49.0,30.45,West,262,0.0,0.0,91,0.09,,,0.26,Wunderground v.1.15,2013-04-26 20:35:00,
2013-04-26 15:40:00,51.5,49.0,30.45,West,262,0.0,0.0,91,0.06,,,0.27,Wunderground v.1.15,2013-04-26 20:40:00,
2013-04-26 15:46:00,51.5,49.3,30.44,North,10,1.0,4.0,92,0.13,,,0.28,Wunderground v.1.15,2013-04-26 20:46:00,
2013-04-26 15:51:00,51.5,49.0,30.44,NNE,28,3.0,5.0,91,0.21,,,0.30,Wunderground v.1.15,2013-04-26 20:51:00,
2013-04-26 15:57:00,51.4,49.2,30.48,SW,234,6.0,10.0,92,0.07,,,0.30,Wunderground v.1.15,2013-04-26 20:57:00,
2013-04-26 16:03:00,51.2,49.0,30.48,WSW,242,6.0,6.0,92,0.04,,,0.31,Wunderground v.1.15,2013-04-26 21:03:00,